Terminal Aerodrome Forecast
Issued by NWS

Home | Current Version | Previous Version | Text Only | Print | Product List | Glossary On
Versions: 1 2 3 4 5 6 7 8 9 10 11 12 13 14 15 16 17 18 19 20 21 22 23 24 25 26 27 28 29 30 31 32 33 34 35 36 37 38 39 40 41 42 43 44 45 46 47 48
000
FTAK31 PANC 200751 AAA
TAFADQ
TAF AMD
PADQ 200751Z 2008/2106 06018G28KT 4SM -RA BKN015 OVC025
      TEMPO 2008/2010 P6SM -RA OVC035
     FM201800 02009KT 6SM -RA BR BKN004 OVC015
     FM210000 36006KT P6SM VCSH OVC007=

USA.gov is the U.S. government's official web portal to all federal, state and local government web resources and services.